Alpena County Regional Airport Alpena US
ICAO: KAPN
IATA: APN
Category: Medium
Scheduled Services: Yes

Elevation: 690 ft
TransAlt. 18000 ft.

Airport Communications:
APP/DEP:128.425
ASOS:120.675
CTAF:121.35
GND:121.9
PTD:37.22
LANSING RDO:108.8
TWR:121.35
UNICOM:122.95

KAPN Zoom In..

If you have problems with the map follow the link
https://www.worldairports.se/pages/airport.php?
ICAO=KAPN

Runways:

(A) RW 01 length 9001 ft width 150 ft
ILS 109.70 / hdg 7

(B) RW 07 length 5028 ft width 100 ft
---- / hdg 67

(C) RW 19 length 9001 ft width 150 ft
---- / hdg 187

(D) RW 25 length 5028 ft width 100 ft
---- / hdg 247

Location; KAPN
Day. 19 / Time. 01.54 Zulu
* Altimeter: 29.49
* Temperature: -02° c. -28.4°f.
* Wind from: 280° Speed 09 kn with Gusts up to 17 kn.
Dewpoint: -04° c.
Visibility: 10 Statute Miles.
Clouds: Few 1900 ft.
Clouds: Overcast 2500 ft.

KAPN 190154Z AUTO 28009G17KT 10SM FEW019 OVC025 M02/M04 A2949 RMK AO2 SLP997 T10171039 $


Wind From 280°
Speed 09 kn.

 
 
jpsmedia worldairports.se 2020   terms of use